sensor_id;sensor_type;location;lat;lon;timestamp;P1;durP1;ratioP1;P2;durP2;ratioP2
20290;SDS011;10304;51.074;13.754;2023-07-31T00:02:18;4.18;;;1.63;;
20290;SDS011;10304;51.074;13.754;2023-07-31T00:04:45;5.13;;;1.80;;
20290;SDS011;10304;51.074;13.754;2023-07-31T00:07:12;4.15;;;1.55;;
20290;SDS011;10304;51.074;13.754;2023-07-31T00:09:39;3.92;;;1.73;;
20290;SDS011;10304;51.074;13.754;2023-07-31T00:12:05;5.65;;;1.98;;
20290;SDS011;10304;51.074;13.754;2023-07-31T00:14:32;2.10;;;1.42;;
20290;SDS011;10304;51.074;13.754;2023-07-31T00:16:59;5.53;;;1.83;;
20290;SDS011;10304;51.074;13.754;2023-07-31T00:19:27;4.05;;;1.50;;
20290;SDS011;10304;51.074;13.754;2023-07-31T00:21:53;5.47;;;2.10;;
20290;SDS011;10304;51.074;13.754;2023-07-31T00:24:20;4.07;;;1.50;;
20290;SDS011;10304;51.074;13.754;2023-07-31T00:26:47;5.45;;;1.52;;
20290;SDS011;10304;51.074;13.754;2023-07-31T00:29:13;2.78;;;1.40;;
20290;SDS011;10304;51.074;13.754;2023-07-31T00:31:40;4.25;;;1.60;;
20290;SDS011;10304;51.074;13.754;2023-07-31T00:34:07;3.65;;;1.67;;
20290;SDS011;10304;51.074;13.754;2023-07-31T00:36:34;7.70;;;2.13;;
20290;SDS011;10304;51.074;13.754;2023-07-31T00:39:00;6.07;;;2.30;;
20290;SDS011;10304;51.074;13.754;2023-07-31T00:41:27;6.68;;;1.90;;
20290;SDS011;10304;51.074;13.754;2023-07-31T00:43:54;4.28;;;1.90;;
20290;SDS011;10304;51.074;13.754;2023-07-31T00:46:20;6.82;;;2.00;;
20290;SDS011;10304;51.074;13.754;2023-07-31T00:48:48;4.53;;;2.10;;
20290;SDS011;10304;51.074;13.754;2023-07-31T00:51:15;5.32;;;2.05;;
20290;SDS011;10304;51.074;13.754;2023-07-31T00:53:42;5.78;;;1.70;;
20290;SDS011;10304;51.074;13.754;2023-07-31T00:56:10;5.20;;;1.92;;
20290;SDS011;10304;51.074;13.754;2023-07-31T00:58:37;4.07;;;1.80;;
20290;SDS011;10304;51.074;13.754;2023-07-31T01:01:04;4.55;;;1.70;;
20290;SDS011;10304;51.074;13.754;2023-07-31T01:03:31;4.47;;;1.90;;
20290;SDS011;10304;51.074;13.754;2023-07-31T01:09:03;3.40;;;1.98;;
20290;SDS011;10304;51.074;13.754;2023-07-31T01:11:38;3.17;;;1.83;;
20290;SDS011;10304;51.074;13.754;2023-07-31T01:14:12;6.03;;;1.85;;
20290;SDS011;10304;51.074;13.754;2023-07-31T01:16:39;6.40;;;1.88;;
20290;SDS011;10304;51.074;13.754;2023-07-31T01:19:06;4.32;;;1.80;;
20290;SDS011;10304;51.074;13.754;2023-07-31T01:21:41;4.95;;;1.67;;
20290;SDS011;10304;51.074;13.754;2023-07-31T01:27:12;3.28;;;1.73;;
20290;SDS011;10304;51.074;13.754;2023-07-31T01:29:47;4.78;;;1.83;;
20290;SDS011;10304;51.074;13.754;2023-07-31T01:32:19;4.03;;;1.77;;
20290;SDS011;10304;51.074;13.754;2023-07-31T01:34:48;3.40;;;1.70;;
20290;SDS011;10304;51.074;13.754;2023-07-31T01:37:16;3.80;;;2.00;;
20290;SDS011;10304;51.074;13.754;2023-07-31T01:39:43;5.30;;;1.60;;
20290;SDS011;10304;51.074;13.754;2023-07-31T01:42:10;3.00;;;1.77;;
20290;SDS011;10304;51.074;13.754;2023-07-31T01:44:37;4.07;;;1.77;;
20290;SDS011;10304;51.074;13.754;2023-07-31T01:47:03;5.70;;;1.90;;
20290;SDS011;10304;51.074;13.754;2023-07-31T01:49:30;4.78;;;1.65;;
20290;SDS011;10304;51.074;13.754;2023-07-31T01:51:57;4.03;;;1.73;;
20290;SDS011;10304;51.074;13.754;2023-07-31T01:54:24;7.60;;;2.00;;
20290;SDS011;10304;51.074;13.754;2023-07-31T01:56:50;3.78;;;2.10;;
20290;SDS011;10304;51.074;13.754;2023-07-31T01:59:17;3.70;;;1.70;;
20290;SDS011;10304;51.074;13.754;2023-07-31T02:01:44;4.07;;;1.50;;
20290;SDS011;10304;51.074;13.754;2023-07-31T02:04:10;4.78;;;1.65;;
20290;SDS011;10304;51.074;13.754;2023-07-31T02:06:37;5.57;;;1.90;;
20290;SDS011;10304;51.074;13.754;2023-07-31T02:09:05;4.32;;;1.77;;
20290;SDS011;10304;51.074;13.754;2023-07-31T02:11:32;2.92;;;1.60;;
20290;SDS011;10304;51.074;13.754;2023-07-31T02:13:59;3.15;;;1.60;;
20290;SDS011;10304;51.074;13.754;2023-07-31T02:16:25;4.03;;;1.70;;
20290;SDS011;10304;51.074;13.754;2023-07-31T02:18:52;4.68;;;1.80;;
20290;SDS011;10304;51.074;13.754;2023-07-31T02:21:19;4.28;;;1.75;;
20290;SDS011;10304;51.074;13.754;2023-07-31T02:23:46;4.95;;;1.80;;
20290;SDS011;10304;51.074;13.754;2023-07-31T02:26:13;5.13;;;1.67;;
20290;SDS011;10304;51.074;13.754;2023-07-31T02:28:39;3.45;;;1.33;;
20290;SDS011;10304;51.074;13.754;2023-07-31T02:31:09;3.20;;;1.60;;
20290;SDS011;10304;51.074;13.754;2023-07-31T02:33:35;4.50;;;1.90;;
20290;SDS011;10304;51.074;13.754;2023-07-31T02:36:02;4.65;;;1.80;;
20290;SDS011;10304;51.074;13.754;2023-07-31T02:38:29;2.38;;;1.52;;
20290;SDS011;10304;51.074;13.754;2023-07-31T02:40:56;4.28;;;1.67;;
20290;SDS011;10304;51.074;13.754;2023-07-31T02:43:22;4.32;;;1.80;;
20290;SDS011;10304;51.074;13.754;2023-07-31T02:45:52;3.03;;;1.67;;
20290;SDS011;10304;51.074;13.754;2023-07-31T02:48:19;3.85;;;1.58;;
20290;SDS011;10304;51.074;13.754;2023-07-31T02:50:47;4.68;;;1.70;;
20290;SDS011;10304;51.074;13.754;2023-07-31T02:53:14;3.08;;;1.55;;
20290;SDS011;10304;51.074;13.754;2023-07-31T02:55:41;5.82;;;1.95;;
20290;SDS011;10304;51.074;13.754;2023-07-31T02:58:07;4.90;;;1.75;;
20290;SDS011;10304;51.074;13.754;2023-07-31T03:00:34;5.10;;;1.58;;
20290;SDS011;10304;51.074;13.754;2023-07-31T03:03:01;3.95;;;1.52;;
20290;SDS011;10304;51.074;13.754;2023-07-31T03:05:28;4.38;;;1.83;;
20290;SDS011;10304;51.074;13.754;2023-07-31T03:07:55;4.32;;;1.75;;
20290;SDS011;10304;51.074;13.754;2023-07-31T03:10:21;3.20;;;1.50;;
20290;SDS011;10304;51.074;13.754;2023-07-31T03:12:48;5.55;;;1.80;;
20290;SDS011;10304;51.074;13.754;2023-07-31T03:15:15;4.40;;;1.70;;
20290;SDS011;10304;51.074;13.754;2023-07-31T03:17:42;3.53;;;1.38;;
20290;SDS011;10304;51.074;13.754;2023-07-31T03:20:09;3.90;;;1.67;;
20290;SDS011;10304;51.074;13.754;2023-07-31T03:22:36;7.65;;;2.00;;
20290;SDS011;10304;51.074;13.754;2023-07-31T03:25:03;6.03;;;1.67;;
20290;SDS011;10304;51.074;13.754;2023-07-31T03:27:30;6.03;;;1.70;;
20290;SDS011;10304;51.074;13.754;2023-07-31T03:29:57;5.03;;;1.77;;
20290;SDS011;10304;51.074;13.754;2023-07-31T03:32:25;4.57;;;1.50;;
20290;SDS011;10304;51.074;13.754;2023-07-31T03:34:51;6.00;;;1.63;;
20290;SDS011;10304;51.074;13.754;2023-07-31T03:37:18;4.05;;;1.80;;
20290;SDS011;10304;51.074;13.754;2023-07-31T03:39:45;3.00;;;1.50;;
20290;SDS011;10304;51.074;13.754;2023-07-31T03:42:12;4.03;;;1.45;;
20290;SDS011;10304;51.074;13.754;2023-07-31T03:44:38;4.18;;;1.50;;
20290;SDS011;10304;51.074;13.754;2023-07-31T03:47:05;3.65;;;1.70;;
20290;SDS011;10304;51.074;13.754;2023-07-31T03:49:32;3.67;;;1.55;;
20290;SDS011;10304;51.074;13.754;2023-07-31T03:51:59;4.25;;;1.90;;
20290;SDS011;10304;51.074;13.754;2023-07-31T03:54:25;3.92;;;1.83;;
20290;SDS011;10304;51.074;13.754;2023-07-31T03:56:52;3.75;;;1.67;;
20290;SDS011;10304;51.074;13.754;2023-07-31T03:59:19;5.05;;;1.50;;
20290;SDS011;10304;51.074;13.754;2023-07-31T04:01:46;5.93;;;1.67;;
20290;SDS011;10304;51.074;13.754;2023-07-31T04:04:12;4.30;;;1.77;;
20290;SDS011;10304;51.074;13.754;2023-07-31T04:06:39;5.07;;;2.00;;
20290;SDS011;10304;51.074;13.754;2023-07-31T04:09:06;4.13;;;2.17;;
20290;SDS011;10304;51.074;13.754;2023-07-31T04:11:33;6.45;;;2.83;;
20290;SDS011;10304;51.074;13.754;2023-07-31T04:13:59;5.40;;;2.10;;
20290;SDS011;10304;51.074;13.754;2023-07-31T04:16:26;7.55;;;2.10;;
20290;SDS011;10304;51.074;13.754;2023-07-31T04:18:53;3.85;;;2.00;;
20290;SDS011;10304;51.074;13.754;2023-07-31T04:21:20;5.13;;;2.03;;
20290;SDS011;10304;51.074;13.754;2023-07-31T04:23:46;5.30;;;2.17;;
20290;SDS011;10304;51.074;13.754;2023-07-31T04:26:13;4.75;;;2.05;;
20290;SDS011;10304;51.074;13.754;2023-07-31T04:28:40;4.60;;;2.05;;
20290;SDS011;10304;51.074;13.754;2023-07-31T04:31:06;4.13;;;2.15;;
20290;SDS011;10304;51.074;13.754;2023-07-31T04:33:33;4.22;;;2.10;;
20290;SDS011;10304;51.074;13.754;2023-07-31T04:36:00;3.40;;;1.90;;
20290;SDS011;10304;51.074;13.754;2023-07-31T04:38:27;3.72;;;2.03;;
20290;SDS011;10304;51.074;13.754;2023-07-31T04:40:54;5.20;;;2.40;;
20290;SDS011;10304;51.074;13.754;2023-07-31T04:43:20;6.45;;;2.28;;
20290;SDS011;10304;51.074;13.754;2023-07-31T04:45:47;6.88;;;2.40;;
20290;SDS011;10304;51.074;13.754;2023-07-31T04:48:16;3.97;;;2.28;;
20290;SDS011;10304;51.074;13.754;2023-07-31T04:50:42;5.85;;;2.20;;
20290;SDS011;10304;51.074;13.754;2023-07-31T04:53:09;5.45;;;2.50;;
20290;SDS011;10304;51.074;13.754;2023-07-31T04:55:36;4.68;;;2.25;;
20290;SDS011;10304;51.074;13.754;2023-07-31T04:58:02;4.75;;;2.00;;
20290;SDS011;10304;51.074;13.754;2023-07-31T05:00:29;4.68;;;2.30;;
20290;SDS011;10304;51.074;13.754;2023-07-31T05:02:56;5.40;;;2.20;;
20290;SDS011;10304;51.074;13.754;2023-07-31T05:05:23;3.63;;;2.05;;
20290;SDS011;10304;51.074;13.754;2023-07-31T05:07:50;6.22;;;2.38;;
20290;SDS011;10304;51.074;13.754;2023-07-31T05:10:16;3.75;;;2.13;;
20290;SDS011;10304;51.074;13.754;2023-07-31T05:12:43;6.78;;;2.30;;
20290;SDS011;10304;51.074;13.754;2023-07-31T05:15:10;7.65;;;3.13;;
20290;SDS011;10304;51.074;13.754;2023-07-31T05:17:37;6.07;;;2.35;;
20290;SDS011;10304;51.074;13.754;2023-07-31T05:20:04;4.68;;;2.17;;
20290;SDS011;10304;51.074;13.754;2023-07-31T05:22:31;5.25;;;2.22;;
20290;SDS011;10304;51.074;13.754;2023-07-31T05:24:58;4.47;;;2.10;;
20290;SDS011;10304;51.074;13.754;2023-07-31T05:27:25;5.90;;;2.50;;
20290;SDS011;10304;51.074;13.754;2023-07-31T05:29:51;6.32;;;2.30;;
20290;SDS011;10304;51.074;13.754;2023-07-31T05:32:18;4.47;;;2.10;;
20290;SDS011;10304;51.074;13.754;2023-07-31T05:34:45;5.13;;;2.10;;
20290;SDS011;10304;51.074;13.754;2023-07-31T05:37:12;4.93;;;2.20;;
20290;SDS011;10304;51.074;13.754;2023-07-31T05:39:38;7.45;;;2.72;;
20290;SDS011;10304;51.074;13.754;2023-07-31T05:42:05;5.47;;;2.67;;
20290;SDS011;10304;51.074;13.754;2023-07-31T05:44:32;6.25;;;2.22;;
20290;SDS011;10304;51.074;13.754;2023-07-31T05:46:58;3.75;;;2.30;;
20290;SDS011;10304;51.074;13.754;2023-07-31T05:49:25;5.38;;;2.30;;
20290;SDS011;10304;51.074;13.754;2023-07-31T05:51:52;5.15;;;2.40;;
20290;SDS011;10304;51.074;13.754;2023-07-31T05:54:19;4.38;;;2.20;;
20290;SDS011;10304;51.074;13.754;2023-07-31T05:56:45;6.93;;;2.35;;
20290;SDS011;10304;51.074;13.754;2023-07-31T05:59:12;5.30;;;2.60;;
20290;SDS011;10304;51.074;13.754;2023-07-31T06:01:39;5.25;;;2.55;;
20290;SDS011;10304;51.074;13.754;2023-07-31T06:04:06;5.22;;;2.85;;
20290;SDS011;10304;51.074;13.754;2023-07-31T06:06:33;5.70;;;2.38;;
20290;SDS011;10304;51.074;13.754;2023-07-31T06:09:00;4.45;;;1.90;;
20290;SDS011;10304;51.074;13.754;2023-07-31T06:11:27;4.75;;;2.60;;
20290;SDS011;10304;51.074;13.754;2023-07-31T06:13:54;4.97;;;2.25;;
20290;SDS011;10304;51.074;13.754;2023-07-31T06:16:21;3.72;;;2.10;;
20290;SDS011;10304;51.074;13.754;2023-07-31T06:18:49;5.28;;;2.60;;
20290;SDS011;10304;51.074;13.754;2023-07-31T06:21:16;3.67;;;2.20;;
20290;SDS011;10304;51.074;13.754;2023-07-31T06:23:43;4.43;;;2.20;;
20290;SDS011;10304;51.074;13.754;2023-07-31T06:26:10;5.03;;;2.38;;
20290;SDS011;10304;51.074;13.754;2023-07-31T06:28:37;6.65;;;2.25;;
20290;SDS011;10304;51.074;13.754;2023-07-31T06:31:03;7.78;;;2.55;;
20290;SDS011;10304;51.074;13.754;2023-07-31T06:33:30;7.07;;;2.45;;
20290;SDS011;10304;51.074;13.754;2023-07-31T06:35:57;5.80;;;2.45;;
20290;SDS011;10304;51.074;13.754;2023-07-31T06:38:24;4.70;;;2.08;;
20290;SDS011;10304;51.074;13.754;2023-07-31T06:40:52;5.10;;;2.28;;
20290;SDS011;10304;51.074;13.754;2023-07-31T06:43:19;3.97;;;1.98;;
20290;SDS011;10304;51.074;13.754;2023-07-31T06:45:46;6.60;;;2.30;;
20290;SDS011;10304;51.074;13.754;2023-07-31T06:48:14;5.90;;;2.13;;
20290;SDS011;10304;51.074;13.754;2023-07-31T06:50:41;7.05;;;2.85;;
20290;SDS011;10304;51.074;13.754;2023-07-31T06:53:08;4.95;;;2.47;;
20290;SDS011;10304;51.074;13.754;2023-07-31T06:55:34;5.50;;;2.60;;
20290;SDS011;10304;51.074;13.754;2023-07-31T06:58:01;6.40;;;2.20;;
20290;SDS011;10304;51.074;13.754;2023-07-31T07:00:28;3.50;;;2.10;;
20290;SDS011;10304;51.074;13.754;2023-07-31T07:02:55;7.53;;;2.75;;
20290;SDS011;10304;51.074;13.754;2023-07-31T07:05:22;7.13;;;2.58;;
20290;SDS011;10304;51.074;13.754;2023-07-31T07:07:49;4.47;;;2.10;;
20290;SDS011;10304;51.074;13.754;2023-07-31T07:10:17;3.08;;;2.08;;
20290;SDS011;10304;51.074;13.754;2023-07-31T07:12:45;5.50;;;2.42;;
20290;SDS011;10304;51.074;13.754;2023-07-31T07:15:12;8.63;;;2.83;;
20290;SDS011;10304;51.074;13.754;2023-07-31T07:17:39;6.88;;;2.63;;
20290;SDS011;10304;51.074;13.754;2023-07-31T07:20:06;4.18;;;2.30;;
20290;SDS011;10304;51.074;13.754;2023-07-31T07:22:34;6.82;;;2.58;;
20290;SDS011;10304;51.074;13.754;2023-07-31T07:25:00;4.25;;;2.30;;
20290;SDS011;10304;51.074;13.754;2023-07-31T07:27:28;3.70;;;2.08;;
20290;SDS011;10304;51.074;13.754;2023-07-31T07:29:54;4.88;;;2.13;;
20290;SDS011;10304;51.074;13.754;2023-07-31T07:32:21;5.55;;;2.08;;
20290;SDS011;10304;51.074;13.754;2023-07-31T07:34:48;3.85;;;2.00;;
20290;SDS011;10304;51.074;13.754;2023-07-31T07:37:15;5.10;;;2.20;;
20290;SDS011;10304;51.074;13.754;2023-07-31T07:39:43;5.15;;;2.17;;
20290;SDS011;10304;51.074;13.754;2023-07-31T07:42:10;4.30;;;2.20;;
20290;SDS011;10304;51.074;13.754;2023-07-31T07:44:36;5.00;;;2.42;;
20290;SDS011;10304;51.074;13.754;2023-07-31T07:47:03;6.22;;;2.35;;
20290;SDS011;10304;51.074;13.754;2023-07-31T07:49:33;6.20;;;2.75;;
20290;SDS011;10304;51.074;13.754;2023-07-31T07:52:01;5.45;;;2.40;;
20290;SDS011;10304;51.074;13.754;2023-07-31T07:54:28;5.75;;;2.55;;
20290;SDS011;10304;51.074;13.754;2023-07-31T07:56:55;5.32;;;2.08;;
20290;SDS011;10304;51.074;13.754;2023-07-31T07:59:21;3.70;;;2.05;;
20290;SDS011;10304;51.074;13.754;2023-07-31T08:01:48;4.55;;;2.60;;
20290;SDS011;10304;51.074;13.754;2023-07-31T08:04:15;8.20;;;3.00;;
20290;SDS011;10304;51.074;13.754;2023-07-31T08:06:41;6.63;;;2.50;;
20290;SDS011;10304;51.074;13.754;2023-07-31T08:09:08;5.00;;;2.17;;
20290;SDS011;10304;51.074;13.754;2023-07-31T08:11:35;10.10;;;2.80;;
20290;SDS011;10304;51.074;13.754;2023-07-31T08:14:02;7.25;;;2.83;;
20290;SDS011;10304;51.074;13.754;2023-07-31T08:16:29;4.18;;;2.50;;
20290;SDS011;10304;51.074;13.754;2023-07-31T08:18:55;5.50;;;2.28;;
20290;SDS011;10304;51.074;13.754;2023-07-31T08:21:23;4.45;;;2.50;;
20290;SDS011;10304;51.074;13.754;2023-07-31T08:23:49;10.05;;;2.78;;
20290;SDS011;10304;51.074;13.754;2023-07-31T08:26:19;6.00;;;2.60;;
20290;SDS011;10304;51.074;13.754;2023-07-31T08:28:47;5.47;;;2.72;;
20290;SDS011;10304;51.074;13.754;2023-07-31T08:31:14;6.28;;;2.35;;
20290;SDS011;10304;51.074;13.754;2023-07-31T08:33:40;5.63;;;2.83;;
20290;SDS011;10304;51.074;13.754;2023-07-31T08:36:07;5.45;;;2.63;;
20290;SDS011;10304;51.074;13.754;2023-07-31T08:38:34;4.97;;;2.47;;
20290;SDS011;10304;51.074;13.754;2023-07-31T08:41:02;5.90;;;2.40;;
20290;SDS011;10304;51.074;13.754;2023-07-31T08:43:30;4.43;;;2.38;;
20290;SDS011;10304;51.074;13.754;2023-07-31T08:45:58;3.72;;;2.45;;
20290;SDS011;10304;51.074;13.754;2023-07-31T08:48:25;5.50;;;2.60;;
20290;SDS011;10304;51.074;13.754;2023-07-31T08:50:54;5.93;;;2.58;;
20290;SDS011;10304;51.074;13.754;2023-07-31T08:53:21;5.88;;;2.55;;
20290;SDS011;10304;51.074;13.754;2023-07-31T08:55:48;5.45;;;2.70;;
20290;SDS011;10304;51.074;13.754;2023-07-31T08:58:15;5.47;;;2.40;;
20290;SDS011;10304;51.074;13.754;2023-07-31T09:00:45;7.38;;;2.55;;
20290;SDS011;10304;51.074;13.754;2023-07-31T09:03:14;6.47;;;3.20;;
20290;SDS011;10304;51.074;13.754;2023-07-31T09:05:43;3.78;;;2.55;;
20290;SDS011;10304;51.074;13.754;2023-07-31T09:08:15;6.07;;;2.90;;
20290;SDS011;10304;51.074;13.754;2023-07-31T09:10:45;4.35;;;2.80;;
20290;SDS011;10304;51.074;13.754;2023-07-31T09:13:13;8.80;;;2.88;;
20290;SDS011;10304;51.074;13.754;2023-07-31T09:15:42;6.68;;;2.78;;
20290;SDS011;10304;51.074;13.754;2023-07-31T09:18:10;4.82;;;2.92;;
20290;SDS011;10304;51.074;13.754;2023-07-31T09:20:37;5.55;;;2.13;;
20290;SDS011;10304;51.074;13.754;2023-07-31T09:23:05;4.25;;;2.20;;
20290;SDS011;10304;51.074;13.754;2023-07-31T09:25:33;6.50;;;2.35;;
20290;SDS011;10304;51.074;13.754;2023-07-31T09:28:01;5.13;;;2.20;;
20290;SDS011;10304;51.074;13.754;2023-07-31T09:30:29;6.00;;;2.40;;
20290;SDS011;10304;51.074;13.754;2023-07-31T09:33:01;7.50;;;2.78;;
20290;SDS011;10304;51.074;13.754;2023-07-31T09:35:35;6.03;;;2.75;;
20290;SDS011;10304;51.074;13.754;2023-07-31T09:38:14;4.90;;;2.47;;
20290;SDS011;10304;51.074;13.754;2023-07-31T09:40:42;6.97;;;2.80;;
20290;SDS011;10304;51.074;13.754;2023-07-31T09:43:11;5.05;;;2.72;;
20290;SDS011;10304;51.074;13.754;2023-07-31T09:45:48;4.00;;;2.60;;
20290;SDS011;10304;51.074;13.754;2023-07-31T09:48:20;6.05;;;2.60;;
20290;SDS011;10304;51.074;13.754;2023-07-31T09:50:47;4.78;;;2.47;;
20290;SDS011;10304;51.074;13.754;2023-07-31T09:53:15;4.07;;;2.58;;
20290;SDS011;10304;51.074;13.754;2023-07-31T09:55:43;6.05;;;2.78;;
20290;SDS011;10304;51.074;13.754;2023-07-31T09:58:10;4.78;;;2.70;;
20290;SDS011;10304;51.074;13.754;2023-07-31T10:00:38;5.93;;;2.20;;
20290;SDS011;10304;51.074;13.754;2023-07-31T10:03:06;3.90;;;2.40;;
20290;SDS011;10304;51.074;13.754;2023-07-31T10:05:36;6.75;;;2.53;;
20290;SDS011;10304;51.074;13.754;2023-07-31T10:08:07;4.03;;;2.70;;
20290;SDS011;10304;51.074;13.754;2023-07-31T10:10:37;3.90;;;2.30;;
20290;SDS011;10304;51.074;13.754;2023-07-31T10:13:07;5.55;;;2.65;;
20290;SDS011;10304;51.074;13.754;2023-07-31T10:15:34;5.03;;;2.60;;
20290;SDS011;10304;51.074;13.754;2023-07-31T10:18:02;5.63;;;2.63;;
20290;SDS011;10304;51.074;13.754;2023-07-31T10:20:32;4.80;;;2.80;;
20290;SDS011;10304;51.074;13.754;2023-07-31T10:23:00;7.30;;;3.03;;
20290;SDS011;10304;51.074;13.754;2023-07-31T10:25:27;5.35;;;2.75;;
20290;SDS011;10304;51.074;13.754;2023-07-31T10:27:55;5.95;;;2.60;;
20290;SDS011;10304;51.074;13.754;2023-07-31T10:30:27;3.63;;;2.42;;
20290;SDS011;10304;51.074;13.754;2023-07-31T10:32:56;6.00;;;2.53;;
20290;SDS011;10304;51.074;13.754;2023-07-31T10:35:24;4.85;;;2.85;;
20290;SDS011;10304;51.074;13.754;2023-07-31T10:37:52;6.05;;;2.67;;
20290;SDS011;10304;51.074;13.754;2023-07-31T10:40:24;4.95;;;2.78;;
20290;SDS011;10304;51.074;13.754;2023-07-31T10:42:53;4.55;;;2.63;;
20290;SDS011;10304;51.074;13.754;2023-07-31T10:45:37;3.08;;;2.47;;
20290;SDS011;10304;51.074;13.754;2023-07-31T10:48:14;4.32;;;2.35;;
20290;SDS011;10304;51.074;13.754;2023-07-31T10:50:48;5.72;;;3.17;;
20290;SDS011;10304;51.074;13.754;2023-07-31T10:55:51;3.13;;;2.58;;
20290;SDS011;10304;51.074;13.754;2023-07-31T10:58:18;5.30;;;2.35;;
20290;SDS011;10304;51.074;13.754;2023-07-31T11:00:47;3.95;;;2.70;;
20290;SDS011;10304;51.074;13.754;2023-07-31T11:03:16;5.40;;;2.88;;
20290;SDS011;10304;51.074;13.754;2023-07-31T11:10:43;4.05;;;2.10;;
20290;SDS011;10304;51.074;13.754;2023-07-31T11:13:10;4.32;;;2.58;;
20290;SDS011;10304;51.074;13.754;2023-07-31T11:15:37;4.80;;;2.58;;
20290;SDS011;10304;51.074;13.754;2023-07-31T11:18:05;5.95;;;2.65;;
20290;SDS011;10304;51.074;13.754;2023-07-31T11:20:32;3.28;;;2.20;;
20290;SDS011;10304;51.074;13.754;2023-07-31T11:23:01;5.35;;;2.40;;
20290;SDS011;10304;51.074;13.754;2023-07-31T11:25:31;5.10;;;2.80;;
20290;SDS011;10304;51.074;13.754;2023-07-31T11:28:06;4.40;;;2.53;;
20290;SDS011;10304;51.074;13.754;2023-07-31T11:30:37;3.78;;;2.67;;
20290;SDS011;10304;51.074;13.754;2023-07-31T11:33:05;2.90;;;2.33;;
20290;SDS011;10304;51.074;13.754;2023-07-31T11:35:33;2.95;;;2.15;;
20290;SDS011;10304;51.074;13.754;2023-07-31T11:38:12;5.13;;;2.20;;
20290;SDS011;10304;51.074;13.754;2023-07-31T11:40:49;2.97;;;2.22;;
20290;SDS011;10304;51.074;13.754;2023-07-31T11:43:17;4.78;;;2.40;;
20290;SDS011;10304;51.074;13.754;2023-07-31T11:45:48;3.92;;;2.40;;
20290;SDS011;10304;51.074;13.754;2023-07-31T11:48:30;3.92;;;2.55;;
20290;SDS011;10304;51.074;13.754;2023-07-31T11:51:04;4.28;;;2.38;;
20290;SDS011;10304;51.074;13.754;2023-07-31T11:53:38;3.97;;;2.33;;
20290;SDS011;10304;51.074;13.754;2023-07-31T11:56:09;4.03;;;2.60;;
20290;SDS011;10304;51.074;13.754;2023-07-31T11:58:39;4.20;;;2.58;;
20290;SDS011;10304;51.074;13.754;2023-07-31T12:01:07;4.10;;;2.25;;
20290;SDS011;10304;51.074;13.754;2023-07-31T12:03:34;3.97;;;2.13;;
20290;SDS011;10304;51.074;13.754;2023-07-31T12:06:02;3.60;;;2.20;;
20290;SDS011;10304;51.074;13.754;2023-07-31T12:08:28;4.68;;;2.25;;
20290;SDS011;10304;51.074;13.754;2023-07-31T12:11:01;3.33;;;2.20;;
20290;SDS011;10304;51.074;13.754;2023-07-31T12:13:30;3.55;;;2.13;;
20290;SDS011;10304;51.074;13.754;2023-07-31T12:16:01;2.63;;;2.13;;
20290;SDS011;10304;51.074;13.754;2023-07-31T12:18:33;2.15;;;1.85;;
20290;SDS011;10304;51.074;13.754;2023-07-31T12:21:02;3.30;;;2.10;;
20290;SDS011;10304;51.074;13.754;2023-07-31T12:23:32;2.55;;;1.98;;
20290;SDS011;10304;51.074;13.754;2023-07-31T12:26:00;5.07;;;2.00;;
20290;SDS011;10304;51.074;13.754;2023-07-31T12:28:28;4.55;;;2.50;;
20290;SDS011;10304;51.074;13.754;2023-07-31T12:30:59;2.65;;;2.10;;
20290;SDS011;10304;51.074;13.754;2023-07-31T12:33:30;3.05;;;2.13;;
20290;SDS011;10304;51.074;13.754;2023-07-31T12:36:00;3.80;;;2.42;;
20290;SDS011;10304;51.074;13.754;2023-07-31T12:38:28;3.92;;;2.10;;
20290;SDS011;10304;51.074;13.754;2023-07-31T12:40:55;5.40;;;2.15;;
20290;SDS011;10304;51.074;13.754;2023-07-31T12:43:22;3.38;;;2.10;;
20290;SDS011;10304;51.074;13.754;2023-07-31T12:45:49;4.25;;;2.20;;
20290;SDS011;10304;51.074;13.754;2023-07-31T12:48:15;3.28;;;2.35;;
20290;SDS011;10304;51.074;13.754;2023-07-31T12:50:42;4.47;;;2.30;;
20290;SDS011;10304;51.074;13.754;2023-07-31T12:53:09;6.30;;;2.63;;
20290;SDS011;10304;51.074;13.754;2023-07-31T12:55:35;5.72;;;2.67;;
20290;SDS011;10304;51.074;13.754;2023-07-31T12:58:03;5.07;;;2.67;;
20290;SDS011;10304;51.074;13.754;2023-07-31T13:00:30;3.97;;;2.20;;
20290;SDS011;10304;51.074;13.754;2023-07-31T13:02:56;3.15;;;2.05;;
20290;SDS011;10304;51.074;13.754;2023-07-31T13:05:23;3.72;;;2.15;;
20290;SDS011;10304;51.074;13.754;2023-07-31T13:07:50;4.32;;;2.22;;
20290;SDS011;10304;51.074;13.754;2023-07-31T13:10:18;3.83;;;2.00;;
20290;SDS011;10304;51.074;13.754;2023-07-31T13:12:45;4.22;;;2.10;;
20290;SDS011;10304;51.074;13.754;2023-07-31T13:15:12;3.97;;;2.30;;
20290;SDS011;10304;51.074;13.754;2023-07-31T13:17:40;2.95;;;1.90;;
20290;SDS011;10304;51.074;13.754;2023-07-31T13:20:07;4.95;;;2.30;;
20290;SDS011;10304;51.074;13.754;2023-07-31T13:22:34;5.47;;;2.40;;
20290;SDS011;10304;51.074;13.754;2023-07-31T13:25:01;3.55;;;2.30;;
20290;SDS011;10304;51.074;13.754;2023-07-31T13:27:28;5.03;;;2.05;;
20290;SDS011;10304;51.074;13.754;2023-07-31T13:29:55;3.25;;;2.22;;
20290;SDS011;10304;51.074;13.754;2023-07-31T13:32:21;4.15;;;2.35;;
20290;SDS011;10304;51.074;13.754;2023-07-31T13:34:48;5.20;;;2.33;;
20290;SDS011;10304;51.074;13.754;2023-07-31T13:37:15;3.33;;;2.30;;
20290;SDS011;10304;51.074;13.754;2023-07-31T13:39:43;3.40;;;2.20;;
20290;SDS011;10304;51.074;13.754;2023-07-31T13:42:10;6.68;;;2.00;;
20290;SDS011;10304;51.074;13.754;2023-07-31T13:44:38;3.83;;;2.50;;
20290;SDS011;10304;51.074;13.754;2023-07-31T13:47:06;4.97;;;3.03;;
20290;SDS011;10304;51.074;13.754;2023-07-31T13:49:34;5.90;;;2.78;;
20290;SDS011;10304;51.074;13.754;2023-07-31T13:52:02;3.65;;;2.50;;
20290;SDS011;10304;51.074;13.754;2023-07-31T13:54:29;3.60;;;2.45;;
20290;SDS011;10304;51.074;13.754;2023-07-31T13:56:56;3.80;;;2.63;;
20290;SDS011;10304;51.074;13.754;2023-07-31T13:59:23;3.28;;;2.20;;
20290;SDS011;10304;51.074;13.754;2023-07-31T14:01:50;5.32;;;2.50;;
20290;SDS011;10304;51.074;13.754;2023-07-31T14:04:17;4.53;;;2.63;;
20290;SDS011;10304;51.074;13.754;2023-07-31T14:06:44;3.67;;;2.33;;
20290;SDS011;10304;51.074;13.754;2023-07-31T14:09:10;3.58;;;2.42;;
20290;SDS011;10304;51.074;13.754;2023-07-31T14:11:40;4.25;;;2.30;;
20290;SDS011;10304;51.074;13.754;2023-07-31T14:14:08;3.25;;;2.15;;
20290;SDS011;10304;51.074;13.754;2023-07-31T14:16:36;3.85;;;2.30;;
20290;SDS011;10304;51.074;13.754;2023-07-31T14:19:03;2.58;;;2.15;;
20290;SDS011;10304;51.074;13.754;2023-07-31T14:21:30;3.42;;;2.08;;
20290;SDS011;10304;51.074;13.754;2023-07-31T14:23:57;5.10;;;2.60;;
20290;SDS011;10304;51.074;13.754;2023-07-31T14:26:24;3.75;;;2.50;;
20290;SDS011;10304;51.074;13.754;2023-07-31T14:28:51;3.25;;;2.40;;
20290;SDS011;10304;51.074;13.754;2023-07-31T14:31:17;4.32;;;2.42;;
20290;SDS011;10304;51.074;13.754;2023-07-31T14:33:44;3.72;;;2.47;;
20290;SDS011;10304;51.074;13.754;2023-07-31T14:36:11;3.35;;;2.70;;
20290;SDS011;10304;51.074;13.754;2023-07-31T14:38:37;3.67;;;2.78;;
20290;SDS011;10304;51.074;13.754;2023-07-31T14:41:04;4.03;;;2.40;;
20290;SDS011;10304;51.074;13.754;2023-07-31T14:43:31;4.13;;;2.65;;
20290;SDS011;10304;51.074;13.754;2023-07-31T14:45:58;4.63;;;2.33;;
20290;SDS011;10304;51.074;13.754;2023-07-31T14:48:26;5.35;;;2.50;;
20290;SDS011;10304;51.074;13.754;2023-07-31T14:50:53;4.40;;;2.60;;